Time;durP1;ratioP1;P1;durP2;ratioP2;P2;SDS_P1;SDS_P2;PMS_P1;PMS_P2;Temp;Humidity;BMP_temperature;BMP_pressure;BME280_temperature;BME280_humidity;BME280_pressure;Samples;Min_cycle;Max_cycle;Signal;HPM_P1;HPM_P2
2022/10/14 00:01:35;;;;;;;89.03;51.95;;;11.60;99.90;;;;;;5006024;28;20034;-75
2022/10/14 00:04:00;;;;;;;80.47;49.03;;;11.60;99.90;;;;;;5000402;28;20050;-76
2022/10/14 00:06:29;;;;;;;85.00;52.92;;;11.50;99.90;;;;;;5000344;28;20034;-75
2022/10/14 00:08:58;;;;;;;83.15;50.47;;;11.60;99.90;;;;;;5006744;28;20030;-75
2022/10/14 00:11:27;;;;;;;85.03;50.70;;;11.50;99.90;;;;;;5006709;28;20472;-74
2022/10/14 00:13:55;;;;;;;103.93;56.30;;;11.40;99.90;;;;;;5018723;28;20026;-73
2022/10/14 00:16:24;;;;;;;90.53;51.63;;;11.40;99.90;;;;;;5011700;28;20032;-76
2022/10/14 00:18:50;;;;;;;79.22;51.28;;;11.50;99.90;;;;;;5000745;28;20057;-75
2022/10/14 00:21:16;;;;;;;83.00;51.40;;;11.50;99.90;;;;;;4999936;28;20068;-74
2022/10/14 00:23:43;;;;;;;78.00;50.35;;;11.50;99.90;;;;;;5005773;28;20073;-74
2022/10/14 00:26:21;;;;;;;89.97;53.47;;;11.60;99.90;;;;;;5007466;28;20022;-74
2022/10/14 00:28:47;;;;;;;89.93;53.75;;;11.60;99.90;;;;;;5012810;28;20380;-76
2022/10/14 00:31:13;;;;;;;84.70;51.97;;;11.60;99.90;;;;;;5012951;28;20025;-76
2022/10/14 00:33:38;;;;;;;91.78;52.83;;;11.60;99.90;;;;;;5004127;28;20030;-75
2022/10/14 00:36:05;;;;;;;88.93;52.55;;;11.60;99.90;;;;;;4993030;28;20030;-74
2022/10/14 00:38:32;;;;;;;83.15;52.83;;;11.60;99.90;;;;;;4992981;28;20542;-73
2022/10/14 00:40:57;;;;;;;87.38;51.45;;;11.60;99.90;;;;;;4993033;28;20026;-73
2022/10/14 00:43:24;;;;;;;90.93;54.08;;;11.60;99.90;;;;;;4993138;28;20611;-75
2022/10/14 00:45:50;;;;;;;101.70;55.70;;;11.60;99.90;;;;;;4993114;28;20522;-74
2022/10/14 00:48:18;;;;;;;88.53;52.70;;;11.70;99.90;;;;;;4991498;28;20027;-73
2022/10/14 00:50:46;;;;;;;81.55;51.45;;;11.60;99.90;;;;;;5008847;28;20041;-74
2022/10/14 00:53:13;;;;;;;104.93;55.40;;;11.60;99.90;;;;;;5011358;28;20083;-75
2022/10/14 00:55:40;;;;;;;98.03;56.35;;;11.60;99.90;;;;;;4998013;28;20032;-74
2022/10/14 00:58:06;;;;;;;88.00;53.30;;;11.60;99.90;;;;;;5001434;28;20027;-74
2022/10/14 01:00:32;;;;;;;96.88;55.65;;;11.70;99.90;;;;;;5007695;28;20113;-74
2022/10/14 01:02:57;;;;;;;90.85;51.63;;;11.60;99.90;;;;;;5002701;28;20110;-74
2022/10/14 01:05:30;;;;;;;90.15;55.70;;;11.60;99.90;;;;;;5007845;28;20383;-74
2022/10/14 01:07:59;;;;;;;118.80;60.42;;;11.70;99.90;;;;;;5001389;28;20026;-75
2022/10/14 01:10:42;;;;;;;113.93;59.35;;;11.70;99.90;;;;;;5004461;28;20527;-75
2022/10/14 01:13:26;;;;;;;105.43;57.45;;;11.60;99.90;;;;;;5006051;28;20030;-76
2022/10/14 01:16:19;;;;;;;100.57;56.53;;;11.70;99.90;;;;;;5001897;28;20061;-75
2022/10/14 01:18:56;;;;;;;96.80;54.92;;;11.70;99.90;;;;;;4998464;28;20030;-75
2022/10/14 01:21:38;;;;;;;104.63;59.15;;;11.70;99.90;;;;;;4999015;28;20033;-75
2022/10/14 01:24:16;;;;;;;111.30;60.05;;;11.90;99.90;;;;;;5002188;28;20018;-75
2022/10/14 01:26:57;;;;;;;94.80;54.58;;;11.70;99.90;;;;;;5006614;28;20044;-75
2022/10/14 01:29:44;;;;;;;125.43;62.85;;;11.70;99.90;;;;;;4997575;28;20053;-75
2022/10/14 01:32:16;;;;;;;118.15;62.25;;;11.70;99.90;;;;;;5002624;28;20031;-75
2022/10/14 01:34:54;;;;;;;116.45;59.90;;;11.70;99.90;;;;;;5005717;28;20026;-75
2022/10/14 01:37:25;;;;;;;128.18;65.00;;;11.70;99.90;;;;;;5002869;28;20399;-75
2022/10/14 01:39:57;;;;;;;106.03;58.45;;;11.70;99.90;;;;;;4998943;28;20500;-75
2022/10/14 01:42:27;;;;;;;96.70;55.67;;;11.70;99.90;;;;;;4997521;28;20030;-74
2022/10/14 01:45:06;;;;;;;97.50;55.78;;;11.70;99.90;;;;;;5004854;28;20019;-75
2022/10/14 01:47:34;;;;;;;98.63;55.45;;;11.70;99.90;;;;;;5003860;28;20050;-74
2022/10/14 01:50:11;;;;;;;101.30;57.05;;;11.70;99.90;;;;;;5000861;28;20373;-74
2022/10/14 01:53:15;;;;;;;94.05;53.42;;;11.70;99.90;;;;;;4993849;28;20018;-74
2022/10/14 01:55:45;;;;;;;96.50;54.67;;;11.70;99.90;;;;;;4967378;28;20085;-73
2022/10/14 01:58:13;;;;;;;92.97;52.53;;;11.70;99.90;;;;;;4993780;28;20039;-75
2022/10/14 02:00:38;;;;;;;84.35;51.40;;;11.70;99.90;;;;;;4996227;28;20471;-75
2022/10/14 02:03:04;;;;;;;102.78;56.30;;;11.70;99.90;;;;;;5000097;28;20161;-75
2022/10/14 02:05:32;;;;;;;94.22;54.42;;;11.70;99.90;;;;;;5005232;28;20023;-75
2022/10/14 02:08:09;;;;;;;83.13;49.85;;;11.70;99.90;;;;;;5001468;28;20482;-74
2022/10/14 02:10:50;;;;;;;93.20;53.38;;;11.70;99.90;;;;;;4997344;28;20509;-74
2022/10/14 02:13:45;;;;;;;87.97;50.55;;;11.70;99.90;;;;;;4996982;28;20038;-74
2022/10/14 02:16:35;;;;;;;86.85;52.25;;;11.70;99.90;;;;;;5011641;28;20029;-74
2022/10/14 02:19:03;;;;;;;87.88;50.80;;;11.70;99.90;;;;;;4991852;28;20684;-73
2022/10/14 02:21:32;;;;;;;104.72;56.70;;;11.70;99.90;;;;;;5006991;28;20057;-74
2022/10/14 02:24:04;;;;;;;92.53;53.30;;;11.60;99.90;;;;;;5010320;28;20030;-74
2022/10/14 02:26:31;;;;;;;88.75;51.30;;;11.60;99.90;;;;;;4998176;28;20018;-73
2022/10/14 02:28:58;;;;;;;87.78;52.75;;;11.60;99.90;;;;;;5000279;28;20034;-75
2022/10/14 02:31:25;;;;;;;97.13;55.03;;;11.60;99.90;;;;;;5008664;28;20059;-74
2022/10/14 02:33:54;;;;;;;85.35;50.88;;;11.60;99.90;;;;;;5006100;28;20183;-74
2022/10/14 02:36:23;;;;;;;93.15;54.42;;;11.70;99.90;;;;;;5000437;28;20086;-76
2022/10/14 02:38:50;;;;;;;105.38;56.60;;;11.70;99.90;;;;;;5003910;28;20042;-75
2022/10/14 02:41:19;;;;;;;90.10;53.10;;;11.70;99.90;;;;;;5008631;28;20109;-76
2022/10/14 02:43:45;;;;;;;102.72;56.63;;;11.70;99.90;;;;;;5007046;28;20049;-75
2022/10/14 02:46:11;;;;;;;82.43;51.28;;;11.70;99.90;;;;;;5000576;28;20488;-75
2022/10/14 02:48:37;;;;;;;89.95;53.58;;;11.70;99.90;;;;;;5001780;28;20396;-76
2022/10/14 02:51:02;;;;;;;96.65;53.97;;;11.80;99.90;;;;;;4999252;28;20488;-75
2022/10/14 02:53:29;;;;;;;90.10;51.72;;;11.70;99.90;;;;;;5003135;28;20491;-75
2022/10/14 02:55:55;;;;;;;83.00;48.15;;;11.70;99.90;;;;;;5008177;28;20138;-74
2022/10/14 02:58:20;;;;;;;92.18;53.75;;;11.70;99.90;;;;;;5005670;28;20057;-74
2022/10/14 03:00:48;;;;;;;80.55;49.35;;;11.70;99.90;;;;;;5000196;28;20022;-75
2022/10/14 03:03:13;;;;;;;81.45;49.58;;;11.70;99.90;;;;;;5002717;28;20053;-75
2022/10/14 03:05:39;;;;;;;75.20;48.20;;;11.70;99.90;;;;;;4994923;28;20054;-75
2022/10/14 03:08:05;;;;;;;80.22;48.13;;;11.80;99.90;;;;;;4993437;28;20484;-75
2022/10/14 03:10:30;;;;;;;84.47;49.63;;;11.80;99.90;;;;;;4994861;28;20076;-75
2022/10/14 03:12:56;;;;;;;79.97;48.20;;;11.80;99.90;;;;;;5006709;28;20026;-75
2022/10/14 03:15:21;;;;;;;75.80;47.92;;;11.80;99.90;;;;;;5007815;28;20404;-73
2022/10/14 03:17:47;;;;;;;84.03;49.67;;;11.80;99.90;;;;;;5006169;28;20117;-74
2022/10/14 03:20:12;;;;;;;73.20;45.80;;;11.80;99.90;;;;;;4996271;28;20030;-73
2022/10/14 03:22:38;;;;;;;91.22;51.65;;;11.80;99.90;;;;;;5006038;28;20360;-74
2022/10/14 03:25:04;;;;;;;96.00;53.47;;;11.80;99.90;;;;;;5000051;28;20554;-74
2022/10/14 03:27:29;;;;;;;89.20;51.67;;;11.80;99.90;;;;;;5001190;28;20019;-74
2022/10/14 03:29:55;;;;;;;88.95;54.40;;;11.80;99.90;;;;;;5007721;28;20034;-74
2022/10/14 03:32:20;;;;;;;82.93;51.50;;;11.70;99.90;;;;;;5005716;28;20022;-75
2022/10/14 03:34:46;;;;;;;91.85;51.83;;;11.70;99.90;;;;;;5000737;28;20025;-75
2022/10/14 03:37:11;;;;;;;82.78;49.78;;;11.70;99.90;;;;;;5003014;28;20042;-75
2022/10/14 03:39:37;;;;;;;78.85;49.60;;;11.60;99.90;;;;;;5007237;28;20029;-74
2022/10/14 03:42:03;;;;;;;82.35;50.45;;;11.60;99.90;;;;;;4993995;28;20077;-74
2022/10/14 03:44:28;;;;;;;82.93;51.78;;;11.60;99.90;;;;;;4992910;28;20495;-73
2022/10/14 03:46:54;;;;;;;85.75;52.03;;;11.60;99.90;;;;;;4992761;28;20026;-74
2022/10/14 03:49:19;;;;;;;88.15;52.33;;;11.60;99.90;;;;;;5011175;28;20041;-74
2022/10/14 03:51:45;;;;;;;91.07;51.70;;;11.60;99.90;;;;;;5013917;28;20522;-74
2022/10/14 03:54:10;;;;;;;82.63;49.05;;;11.50;99.90;;;;;;4995137;28;20030;-74
2022/10/14 03:56:36;;;;;;;94.70;52.75;;;11.50;99.90;;;;;;5004398;28;20041;-76
2022/10/14 03:59:01;;;;;;;98.18;52.45;;;11.50;99.90;;;;;;4996327;28;20069;-74
2022/10/14 04:01:27;;;;;;;102.45;52.22;;;11.40;99.90;;;;;;4993951;28;20053;-73
2022/10/14 04:03:52;;;;;;;92.57;52.50;;;11.40;99.90;;;;;;4993787;28;20026;-73
2022/10/14 04:06:18;;;;;;;107.00;56.20;;;11.40;99.90;;;;;;4993857;28;20109;-73
2022/10/14 04:08:43;;;;;;;120.63;61.75;;;11.40;99.90;;;;;;4993548;28;20097;-74
2022/10/14 04:11:09;;;;;;;107.65;59.20;;;11.40;99.90;;;;;;4992479;28;20022;-74
2022/10/14 04:13:35;;;;;;;113.47;60.20;;;11.40;99.90;;;;;;4993718;28;20069;-75
2022/10/14 04:16:06;;;;;;;99.45;53.97;;;11.30;99.90;;;;;;5003730;28;20030;-75
2022/10/14 04:18:33;;;;;;;89.68;52.08;;;11.40;99.90;;;;;;4999892;28;20396;-76
2022/10/14 04:21:04;;;;;;;114.07;57.00;;;11.50;99.90;;;;;;5002487;28;20034;-76
2022/10/14 04:23:31;;;;;;;94.80;53.15;;;11.50;99.90;;;;;;5006601;28;20038;-78
2022/10/14 04:25:56;;;;;;;93.68;53.03;;;11.60;99.90;;;;;;5005388;28;20030;-76
2022/10/14 04:28:22;;;;;;;79.35;48.63;;;11.50;99.90;;;;;;5000942;28;20029;-77
2022/10/14 04:30:47;;;;;;;116.82;82.82;;;11.50;99.90;;;;;;5000506;28;20022;-76
2022/10/14 04:33:13;;;;;;;121.60;84.45;;;11.50;99.90;;;;;;5005706;28;20054;-75
2022/10/14 04:35:38;;;;;;;83.57;55.47;;;11.50;99.90;;;;;;5004838;28;20033;-76
2022/10/14 04:38:04;;;;;;;104.57;76.05;;;11.50;99.90;;;;;;4999445;28;20065;-75
2022/10/14 04:40:30;;;;;;;93.97;53.42;;;11.40;99.90;;;;;;5011549;28;20025;-76
2022/10/14 04:42:57;;;;;;;88.30;49.13;;;11.40;99.90;;;;;;4999552;28;20030;-76
2022/10/14 04:45:24;;;;;;;87.00;50.50;;;11.40;99.90;;;;;;5000512;28;20101;-75
2022/10/14 04:47:50;;;;;;;80.18;48.50;;;11.40;99.90;;;;;;5006111;28;20023;-75
2022/10/14 04:50:16;;;;;;;86.68;49.45;;;11.40;99.90;;;;;;5005310;28;20080;-76
2022/10/14 04:52:42;;;;;;;93.53;52.03;;;11.40;99.90;;;;;;5005873;28;20054;-76
2022/10/14 04:55:07;;;;;;;95.95;51.63;;;11.50;99.90;;;;;;5005302;28;20103;-77
2022/10/14 04:57:33;;;;;;;91.43;50.97;;;11.40;99.90;;;;;;4998393;28;20075;-77
2022/10/14 04:59:59;;;;;;;89.85;49.97;;;11.50;99.90;;;;;;4999734;28;20031;-75
2022/10/14 05:02:24;;;;;;;84.90;48.15;;;11.50;99.90;;;;;;4992802;28;20546;-75
2022/10/14 05:04:50;;;;;;;84.85;48.92;;;11.40;99.90;;;;;;5000875;28;20480;-75
2022/10/14 05:07:15;;;;;;;81.18;47.08;;;11.50;99.90;;;;;;5006858;28;20118;-75
2022/10/14 05:09:41;;;;;;;90.03;49.30;;;11.40;99.90;;;;;;5004581;28;20431;-76
2022/10/14 05:12:06;;;;;;;109.15;58.03;;;11.50;99.90;;;;;;4999189;28;20093;-76
2022/10/14 05:14:32;;;;;;;97.32;55.50;;;11.50;99.90;;;;;;5000757;28;20027;-74
2022/10/14 05:16:58;;;;;;;93.05;51.83;;;11.50;99.90;;;;;;5005621;28;20112;-76
2022/10/14 05:19:23;;;;;;;80.85;47.78;;;11.50;99.90;;;;;;5004285;28;20488;-76
2022/10/14 05:21:49;;;;;;;87.00;49.58;;;11.50;99.90;;;;;;4997512;28;20030;-76
2022/10/14 05:24:15;;;;;;;83.30;47.00;;;11.50;99.90;;;;;;5001061;28;20034;-76
2022/10/14 05:26:41;;;;;;;86.22;48.97;;;11.50;99.90;;;;;;5005672;28;20054;-76
2022/10/14 05:29:07;;;;;;;87.45;48.60;;;11.50;99.90;;;;;;4992418;28;20023;-76
2022/10/14 05:31:32;;;;;;;88.38;48.38;;;11.50;99.90;;;;;;5005798;28;20444;-76
2022/10/14 05:33:58;;;;;;;83.32;50.20;;;11.50;99.90;;;;;;5003291;28;20710;-75
2022/10/14 05:36:26;;;;;;;79.38;47.17;;;11.60;99.90;;;;;;4997859;28;20038;-75
2022/10/14 05:38:55;;;;;;;83.57;48.72;;;11.60;99.90;;;;;;4999368;28;20030;-75
2022/10/14 05:41:20;;;;;;;127.65;74.85;;;11.70;99.90;;;;;;5005399;28;20023;-75
2022/10/14 05:43:46;;;;;;;132.80;74.55;;;11.60;99.90;;;;;;5002439;28;20488;-75
2022/10/14 05:46:11;;;;;;;99.32;61.53;;;11.60;99.90;;;;;;4994144;28;20481;-74
2022/10/14 05:48:37;;;;;;;81.85;49.10;;;11.60;99.90;;;;;;5003711;28;20069;-76
2022/10/14 05:51:03;;;;;;;88.85;52.35;;;11.80;99.90;;;;;;5010007;28;20032;-76
2022/10/14 05:53:29;;;;;;;89.50;53.47;;;11.60;99.90;;;;;;5004017;28;20026;-76
2022/10/14 05:56:08;;;;;;;76.85;46.95;;;11.70;99.90;;;;;;4997323;28;20022;-75
2022/10/14 05:58:34;;;;;;;178.48;94.78;;;11.60;99.90;;;;;;4998983;28;20030;-76
2022/10/14 06:01:01;;;;;;;129.13;76.18;;;11.60;99.90;;;;;;5003731;28;20557;-75
2022/10/14 06:03:26;;;;;;;100.80;57.65;;;11.60;99.90;;;;;;5005352;28;20125;-76
2022/10/14 06:05:52;;;;;;;104.90;68.55;;;11.60;99.90;;;;;;5003302;28;20058;-76
2022/10/14 06:08:18;;;;;;;85.53;50.25;;;11.60;99.90;;;;;;5000651;28;20026;-76
2022/10/14 06:10:43;;;;;;;87.45;50.78;;;11.60;99.90;;;;;;5003384;28;20026;-75
2022/10/14 06:13:09;;;;;;;83.97;49.35;;;11.60;99.90;;;;;;5015361;28;20029;-76
2022/10/14 06:15:35;;;;;;;93.03;51.35;;;11.60;99.90;;;;;;4996102;28;20499;-76
2022/10/14 06:18:00;;;;;;;91.05;52.42;;;11.60;99.90;;;;;;5008230;28;20391;-74
2022/10/14 06:20:26;;;;;;;81.93;48.28;;;11.50;99.90;;;;;;5007187;28;20042;-77
2022/10/14 06:22:52;;;;;;;85.35;50.22;;;11.60;99.90;;;;;;5007919;28;20123;-76
2022/10/14 06:25:17;;;;;;;84.45;50.20;;;11.70;99.90;;;;;;5003214;28;20025;-77
2022/10/14 06:27:43;;;;;;;77.97;47.58;;;11.70;99.90;;;;;;5000838;28;20046;-77
2022/10/14 06:30:09;;;;;;;80.63;46.42;;;11.70;99.90;;;;;;5008714;28;20022;-77
2022/10/14 06:32:35;;;;;;;76.32;45.15;;;11.70;99.90;;;;;;5009222;28;20029;-77
2022/10/14 06:35:01;;;;;;;81.45;46.85;;;11.70;99.90;;;;;;5002439;28;20498;-76
2022/10/14 06:37:26;;;;;;;79.72;47.63;;;11.70;99.90;;;;;;5001631;28;20043;-75
2022/10/14 06:39:52;;;;;;;86.57;48.78;;;11.70;99.90;;;;;;5009123;28;20046;-77
2022/10/14 06:42:17;;;;;;;78.68;47.75;;;11.70;99.90;;;;;;5008306;28;20056;-77
2022/10/14 06:44:43;;;;;;;87.90;49.65;;;11.80;99.90;;;;;;5016988;28;20108;-76
2022/10/14 06:47:09;;;;;;;83.75;49.92;;;11.80;99.90;;;;;;5001906;28;20023;-77
2022/10/14 06:49:35;;;;;;;87.78;47.95;;;11.80;99.90;;;;;;5009319;28;20383;-77
2022/10/14 06:52:01;;;;;;;74.97;46.72;;;11.80;99.90;;;;;;5008061;28;20386;-76
2022/10/14 06:54:27;;;;;;;82.63;46.63;;;11.90;99.90;;;;;;5002575;28;20117;-77
2022/10/14 06:56:52;;;;;;;74.15;44.78;;;11.90;99.90;;;;;;5002444;28;20038;-77
2022/10/14 06:59:18;;;;;;;78.78;46.03;;;12.00;99.90;;;;;;5009390;28;20037;-77
2022/10/14 07:01:44;;;;;;;67.93;44.38;;;11.90;99.90;;;;;;5008614;28;20022;-76
2022/10/14 07:04:09;;;;;;;68.93;45.47;;;12.00;99.90;;;;;;5009139;28;20054;-77
2022/10/14 07:06:36;;;;;;;75.82;47.20;;;12.00;99.90;;;;;;5007747;28;20025;-77
2022/10/14 07:09:02;;;;;;;75.25;45.53;;;12.00;99.90;;;;;;4999886;28;20022;-76
2022/10/14 07:11:28;;;;;;;66.97;44.05;;;12.00;99.90;;;;;;5001974;28;20030;-76
2022/10/14 07:13:55;;;;;;;66.13;44.15;;;12.10;99.90;;;;;;5008177;28;20476;-76
2022/10/14 07:16:20;;;;;;;65.25;41.92;;;12.10;99.90;;;;;;5006737;28;20022;-77
2022/10/14 07:18:47;;;;;;;67.22;42.70;;;12.20;99.90;;;;;;5000022;28;20068;-77
2022/10/14 07:21:13;;;;;;;71.20;44.05;;;12.10;99.90;;;;;;5001648;28;20026;-77
2022/10/14 07:23:38;;;;;;;64.80;43.17;;;12.20;99.90;;;;;;4999833;28;20018;-77
2022/10/14 07:26:04;;;;;;;70.85;44.72;;;12.20;99.90;;;;;;5001652;28;20023;-75
2022/10/14 07:28:32;;;;;;;71.40;43.22;;;12.20;99.90;;;;;;4993098;28;20023;-76
2022/10/14 07:31:04;;;;;;;69.88;44.85;;;12.30;99.90;;;;;;4994588;28;20020;-75
2022/10/14 07:33:30;;;;;;;64.65;44.58;;;12.40;99.90;;;;;;5006069;28;20081;-76
2022/10/14 07:36:01;;;;;;;63.95;43.47;;;12.30;99.90;;;;;;4994463;28;20034;-76
2022/10/14 07:38:26;;;;;;;65.72;43.75;;;12.40;99.90;;;;;;5004863;28;20577;-76
2022/10/14 07:41:03;;;;;;;64.82;43.13;;;12.30;99.90;;;;;;4993861;28;20125;-74
2022/10/14 07:43:29;;;;;;;63.50;40.97;;;12.40;99.90;;;;;;5004919;28;20034;-76
2022/10/14 07:46:00;;;;;;;57.60;39.80;;;12.30;99.90;;;;;;4993202;28;20014;-75
2022/10/14 07:48:28;;;;;;;57.70;39.70;;;12.40;99.90;;;;;;5002732;28;20030;-75
2022/10/14 07:50:53;;;;;;;62.65;39.65;;;12.40;99.90;;;;;;5013814;28;20125;-76
2022/10/14 07:53:19;;;;;;;59.13;40.50;;;12.50;99.90;;;;;;5003521;28;20030;-75
2022/10/14 07:55:50;;;;;;;56.97;37.83;;;12.50;99.90;;;;;;5004800;28;20050;-75
2022/10/14 07:58:20;;;;;;;56.15;39.10;;;12.60;99.90;;;;;;5002258;28;20641;-76
2022/10/14 08:00:47;;;;;;;56.42;37.58;;;12.60;99.90;;;;;;4998343;28;20535;-76
2022/10/14 08:03:13;;;;;;;52.08;37.03;;;12.70;99.90;;;;;;5001762;28;20026;-75
2022/10/14 08:05:39;;;;;;;53.22;36.95;;;12.70;99.90;;;;;;5006886;28;20523;-75
2022/10/14 08:08:05;;;;;;;52.13;36.60;;;12.80;99.90;;;;;;5005666;28;20028;-76
2022/10/14 08:10:31;;;;;;;52.85;36.55;;;12.80;99.90;;;;;;4993529;28;20110;-75
2022/10/14 08:12:56;;;;;;;54.35;36.38;;;12.80;99.90;;;;;;4993805;28;20110;-75
2022/10/14 08:15:24;;;;;;;54.15;37.28;;;12.80;99.90;;;;;;5006736;28;20027;-73
2022/10/14 08:17:50;;;;;;;52.92;36.00;;;12.90;99.90;;;;;;5004188;28;20030;-76
2022/10/14 08:20:15;;;;;;;55.60;36.25;;;12.90;99.90;;;;;;5007848;28;20041;-77
2022/10/14 08:22:41;;;;;;;51.95;35.75;;;12.90;99.90;;;;;;4993433;28;20065;-76
2022/10/14 08:25:07;;;;;;;49.65;34.63;;;13.00;99.90;;;;;;5004130;28;20477;-76
2022/10/14 08:27:32;;;;;;;44.38;31.65;;;13.10;99.90;;;;;;5003506;28;20022;-76
2022/10/14 08:29:58;;;;;;;44.80;31.67;;;13.20;99.90;;;;;;4998901;28;20049;-76
2022/10/14 08:32:23;;;;;;;46.65;32.45;;;13.20;99.90;;;;;;5000667;28;20531;-76
2022/10/14 08:34:49;;;;;;;43.55;31.90;;;13.20;99.90;;;;;;4992980;28;20050;-76
2022/10/14 08:37:14;;;;;;;43.72;32.28;;;13.30;99.90;;;;;;4992792;28;20030;-75
2022/10/14 08:39:40;;;;;;;46.42;32.97;;;13.30;99.90;;;;;;4993180;28;20030;-75
2022/10/14 08:42:11;;;;;;;42.90;31.73;;;13.40;99.90;;;;;;4993057;28;20030;-74
2022/10/14 08:44:55;;;;;;;43.60;30.17;;;13.40;99.90;;;;;;4993093;28;20412;-75
2022/10/14 08:47:28;;;;;;;37.72;28.88;;;13.60;99.90;;;;;;4992762;28;20026;-75
2022/10/14 08:50:00;;;;;;;36.60;27.08;;;13.70;99.90;;;;;;5000643;28;20480;-75
2022/10/14 08:52:32;;;;;;;36.40;26.42;;;13.70;99.90;;;;;;4996204;28;20038;-74
2022/10/14 08:55:03;;;;;;;36.17;27.23;;;13.70;99.90;;;;;;4992903;28;20046;-75
2022/10/14 08:57:37;;;;;;;37.20;25.98;;;13.90;99.90;;;;;;5000990;28;20033;-75
2022/10/14 09:00:03;;;;;;;34.83;25.52;;;14.00;99.90;;;;;;4992875;28;20113;-76
2022/10/14 09:02:45;;;;;;;33.50;24.77;;;14.00;99.90;;;;;;4991412;28;20109;-76
2022/10/14 09:05:21;;;;;;;31.85;23.23;;;14.00;99.90;;;;;;4993832;28;20476;-76
2022/10/14 09:07:48;;;;;;;37.72;23.92;;;14.00;99.90;;;;;;5001672;28;20022;-76
2022/10/14 09:10:24;;;;;;;34.67;24.65;;;14.00;99.90;;;;;;4991329;28;20027;-76
2022/10/14 09:12:52;;;;;;;35.85;24.75;;;14.00;99.90;;;;;;4991664;28;20439;-75
2022/10/14 09:15:29;;;;;;;28.45;23.10;;;14.00;99.90;;;;;;4997128;28;20483;-78
2022/10/14 09:18:11;;;;;;;31.95;22.38;;;13.90;99.90;;;;;;5005335;28;20034;-77
2022/10/14 09:20:36;;;;;;;28.60;22.17;;;13.90;99.90;;;;;;5013104;28;20116;-78
2022/10/14 09:23:16;;;;;;;31.75;22.17;;;13.80;99.90;;;;;;5012303;28;20050;-78
2022/10/14 09:25:56;;;;;;;30.75;22.20;;;14.00;99.90;;;;;;5008454;28;20026;-77
2022/10/14 09:28:28;;;;;;;27.10;21.13;;;14.40;99.90;;;;;;5007866;28;20149;-77
2022/10/14 09:30:54;;;;;;;29.30;20.60;;;14.10;99.90;;;;;;5005952;28;20033;-76
2022/10/14 09:33:20;;;;;;;24.92;19.38;;;14.10;99.90;;;;;;5003829;28;20027;-76
2022/10/14 09:35:47;;;;;;;29.48;21.35;;;14.30;99.90;;;;;;5011314;28;20045;-75
2022/10/14 09:38:14;;;;;;;29.27;22.17;;;14.40;99.90;;;;;;4997807;28;20388;-75
2022/10/14 09:40:46;;;;;;;24.92;20.48;;;14.40;99.90;;;;;;5010130;28;20056;-76
2022/10/14 09:43:17;;;;;;;27.17;19.65;;;14.30;99.90;;;;;;4992761;28;20493;-75
2022/10/14 09:45:56;;;;;;;24.95;19.92;;;14.50;99.90;;;;;;5005689;28;20446;-76
2022/10/14 09:48:43;;;;;;;26.02;17.92;;;14.60;99.90;;;;;;5000815;28;20022;-75
2022/10/14 09:51:10;;;;;;;;;;;14.80;99.90;;;;;;5010995;28;20029;-76
2022/10/14 09:53:40;;;;;;;22.63;18.38;;;14.60;99.90;;;;;;4997705;28;19932;-75
2022/10/14 09:56:08;;;;;;;26.08;18.77;;;14.80;99.90;;;;;;4999191;28;20037;-75
2022/10/14 09:58:53;;;;;;;27.58;18.63;;;14.90;99.90;;;;;;4998481;28;20477;-76
2022/10/14 10:01:22;;;;;;;25.03;18.03;;;14.90;99.90;;;;;;5001955;28;20038;-76
2022/10/14 10:03:49;;;;;;;26.08;17.20;;;14.80;99.90;;;;;;4990576;28;20081;-75
2022/10/14 10:06:19;;;;;;;24.65;17.90;;;14.60;99.90;;;;;;5002190;28;20025;-76
2022/10/14 10:08:57;;;;;;;24.85;18.55;;;14.60;99.90;;;;;;4996986;28;20026;-76
2022/10/14 10:11:37;;;;;;;21.48;17.50;;;14.80;99.90;;;;;;4999324;28;20444;-76
2022/10/14 10:14:19;;;;;;;21.23;17.40;;;14.90;99.90;;;;;;4998235;28;20559;-75
2022/10/14 10:16:45;;;;;;;23.67;17.73;;;15.10;99.90;;;;;;4998455;28;20062;-75
2022/10/14 10:19:31;;;;;;;21.63;16.80;;;15.30;99.90;;;;;;5011306;28;20531;-75
2022/10/14 10:22:23;;;;;;;21.20;15.02;;;15.50;99.90;;;;;;4997238;28;20064;-75
2022/10/14 10:25:00;;;;;;;22.67;15.43;;;15.50;99.90;;;;;;4995577;28;20034;-75
2022/10/14 10:27:35;;;;;;;20.33;15.38;;;15.50;99.90;;;;;;5002617;28;20510;-76
2022/10/14 10:30:16;;;;;;;19.58;14.27;;;15.60;99.90;;;;;;5007260;28;20077;-76
2022/10/14 10:32:51;;;;;;;21.00;14.43;;;15.40;99.90;;;;;;4997898;28;20022;-75
2022/10/14 10:35:39;;;;;;;19.77;14.75;;;15.50;99.90;;;;;;5010271;28;20394;-76
2022/10/14 10:38:05;;;;;;;16.27;12.70;;;15.60;99.90;;;;;;4997984;28;20526;-76
2022/10/14 10:40:37;;;;;;;18.02;12.68;;;16.00;99.90;;;;;;4999567;28;20054;-76
2022/10/14 10:43:06;;;;;;;16.42;12.80;;;16.20;99.90;;;;;;5006699;28;20026;-76
2022/10/14 10:45:49;;;;;;;16.15;12.75;;;16.20;99.90;;;;;;5000988;28;20030;-76
2022/10/14 10:48:19;;;;;;;14.98;12.07;;;16.10;99.90;;;;;;4999133;28;20065;-75
2022/10/14 10:51:15;;;;;;;15.77;11.88;;;16.40;99.90;;;;;;5007384;28;20122;-75
2022/10/14 10:54:18;;;;;;;17.60;13.27;;;16.70;99.90;;;;;;5001108;28;20030;-75
2022/10/14 10:56:57;;;;;;;16.38;13.07;;;16.50;99.90;;;;;;5002064;28;20026;-75
2022/10/14 10:59:42;;;;;;;17.05;12.75;;;16.70;99.90;;;;;;5007696;28;20057;-76
2022/10/14 11:02:38;;;;;;;19.67;13.13;;;16.80;99.90;;;;;;5008034;28;20049;-75
2022/10/14 11:05:22;;;;;;;15.02;12.75;;;16.90;99.90;;;;;;5008161;28;20058;-75
2022/10/14 11:14:33;;;;;;;12.93;10.82;;;16.60;99.90;;;;;;5004002;28;20571;-75
2022/10/14 11:17:21;;;;;;;14.48;11.40;;;16.80;99.90;;;;;;5001019;28;20472;-75
2022/10/14 11:19:59;;;;;;;14.02;11.07;;;16.80;99.90;;;;;;5001056;28;20029;-75
2022/10/14 11:22:43;;;;;;;14.82;9.98;;;16.60;99.90;;;;;;5004744;28;20027;-75
2022/10/14 11:25:43;;;;;;;15.57;11.00;;;17.00;99.90;;;;;;5007649;28;20050;-75
2022/10/14 11:28:21;;;;;;;16.02;10.98;;;17.20;99.90;;;;;;5006371;28;20025;-75
2022/10/14 11:31:00;;;;;;;15.25;11.15;;;17.20;99.90;;;;;;5005745;28;20037;-76
2022/10/14 11:33:52;;;;;;;18.08;10.80;;;17.10;99.90;;;;;;5001335;28;20101;-75
2022/10/14 11:36:39;;;;;;;13.52;9.57;;;17.40;99.90;;;;;;5009835;28;20064;-75
2022/10/14 11:39:23;;;;;;;13.45;9.48;;;17.30;99.90;;;;;;5010555;28;20569;-75
2022/10/14 11:42:14;;;;;;;16.27;9.20;;;17.50;99.90;;;;;;5007254;28;20022;-74
2022/10/14 11:44:43;;;;;;;12.65;8.35;;;17.10;99.90;;;;;;5009341;28;20069;-75
2022/10/14 11:47:19;;;;;;;13.70;8.00;;;17.60;99.90;;;;;;5005148;28;20502;-75
2022/10/14 11:50:02;;;;;;;12.50;8.68;;;17.70;99.90;;;;;;5009493;28;20022;-75
2022/10/14 11:52:36;;;;;;;10.98;7.38;;;17.70;99.90;;;;;;5008149;28;20038;-75
2022/10/14 11:55:09;;;;;;;11.50;7.50;;;17.40;99.90;;;;;;5009718;28;20253;-75
2022/10/14 11:57:38;;;;;;;9.60;7.32;;;17.50;99.90;;;;;;5012453;28;20117;-75
2022/10/14 12:00:24;;;;;;;10.55;8.10;;;17.20;99.90;;;;;;5013055;28;20033;-75
2022/10/14 12:02:56;;;;;;;9.20;7.22;;;17.20;99.90;;;;;;5013972;28;20033;-75
2022/10/14 12:05:42;;;;;;;10.80;7.72;;;17.00;99.90;;;;;;5007195;28;20496;-76
2022/10/14 12:08:24;;;;;;;11.07;8.17;;;16.70;99.90;;;;;;5013186;28;20033;-75
2022/10/14 12:10:57;;;;;;;11.73;7.80;;;16.60;99.90;;;;;;5000600;28;20025;-75
2022/10/14 12:13:38;;;;;;;17.00;8.77;;;16.70;99.90;;;;;;5009883;28;20021;-76
2022/10/14 12:16:16;;;;;;;10.20;8.02;;;16.80;99.90;;;;;;5003252;28;20426;-75
2022/10/14 12:18:45;;;;;;;13.35;8.55;;;16.70;99.90;;;;;;5012757;28;20026;-75
2022/10/14 12:21:26;;;;;;;10.48;8.98;;;16.70;99.90;;;;;;4998917;28;20026;-76
2022/10/14 12:24:09;;;;;;;12.77;8.23;;;16.90;99.90;;;;;;5005638;28;20386;-76
2022/10/14 12:26:51;;;;;;;13.73;8.07;;;16.70;99.90;;;;;;5011291;28;20499;-76
2022/10/14 12:29:23;;;;;;;12.30;8.02;;;16.60;99.90;;;;;;5011074;28;20041;-76
2022/10/14 12:32:10;;;;;;;12.00;7.57;;;16.80;99.90;;;;;;5008095;28;20036;-76
2022/10/14 12:34:41;;;;;;;13.50;8.02;;;16.80;99.90;;;;;;5000802;28;20459;-76
2022/10/14 12:37:36;;;;;;;11.35;7.90;;;16.70;99.90;;;;;;5001628;28;20026;-76
2022/10/14 12:40:02;;;;;;;11.65;8.88;;;16.60;99.90;;;;;;5001058;28;20156;-75
2022/10/14 12:42:56;;;;;;;14.52;9.20;;;16.60;99.90;;;;;;4999072;28;20490;-75
2022/10/14 12:45:25;;;;;;;14.73;9.35;;;16.70;99.90;;;;;;5012161;28;20483;-75
2022/10/14 12:48:12;;;;;;;11.52;8.48;;;16.50;99.90;;;;;;4991860;28;20030;-75
2022/10/14 12:50:46;;;;;;;15.55;8.93;;;16.60;99.90;;;;;;5006437;28;20022;-76
2022/10/14 12:53:32;;;;;;;10.23;8.25;;;16.50;99.90;;;;;;5002484;28;20041;-75